РПИ Алматы

РПИ Алматы является структурным подразделением дивизиона VATRUS сети   VATSIM.

РПИ осуществляет свою деятельность в границах Алматинской и Восточно-Казахстанской областей Республики Казахстан.

Схемы и аэронавигационную информацию можно получить на сайте   Казаэронавигация

Средства связи ОВД:

UAAA_CTR - Алматы Контроль - 131.400

RU-CEN_FSS - Азия Радар  - 132.850 (РПИ: UACNUAAAUAIIUATTUTAAUCFMUTATUTDDUTTRUCFOUTSDUTAVUTAK)

Руководство

Evgeny Vygornitsky*

Куратор

Dmitriy Bannov

Помощник куратора по Казахстану
Инструкторы РПИ
Dmitriy Bannov (Instructor)
Evgeny Vygornitsky (Supervisor)
Vitaliy Alekseyev (Instructor)
Входит в состав
Центральная Азия

Диспетчеры РПИ

Диспетчер Рейтинг Допуски *
Dmitriy Bannov Instructor UAAA_CTR
Alexandr Sokolov Student 2 UAAA_TWR
Alikhan Aidarbek Student UAAA_TWR
Artem Kuzmenko Student UAAA_GND

Аэропорты РПИ

ICAO Город Название Погода
UAAA Алматы Алматы UAAA 100800Z 02003MPS 5000 BR FEW100 M10/M13 Q1039 NOSIG